El Paso, TX (88541)

12:49 AM MDT on July 29, 2016 (GMT -0600)
Montwood and Wedgewood | | Change Station

Elev 3957 ft 31.77 °N, 106.35 °W | Updated 48 seconds ago

Scattered Clouds
Scattered Clouds
82.0 °F
Feels Like 82 °F
N
0.0
Wind Variable Wind from ESE
Gusts 9.0 mph

Today
High -- | Low -- °F
--% Chance of Precip.
Yesterday
High -- | Low -- °F
Precip. -- in
Pressure 29.80 in
Visibility 10.0 miles
Clouds Scattered Clouds 25000 ft
Heat Index 82 °F
Dew Point 57 °F
Humidity 42%
Rainfall 0.00 in
Snow Depth Not available.
6:19 AM 8:04 PM
Waning Crescent, 24% visible
METAR KELP 290551Z 12011KT 10SM SCT250 29/13 A3005 RMK AO2 SLP089 T02940128 10361 20294 51016
Pressure 29.80 in
Visibility 10.0 miles
Clouds Scattered Clouds 25000 ft
Heat Index 82 °F
Dew Point 57 °F
Humidity 42%
Rainfall 0.00 in
Snow Depth Not available.
6:19 AM 8:04 PM
Waning Crescent, 24% visible
METAR KELP 290551Z 12011KT 10SM SCT250 29/13 A3005 RMK AO2 SLP089 T02940128 10361 20294 51016

10-Day Weather Forecast

Almanac

Astronomy

Jul. 29, 2016 Rise Set
Actual Time
Civil Twilight
Nautical Twilight
Astronomical Twilight
Moon
Length of Visible Light
Length of Day
Tomorrow will be .
, % of the Moon is Illuminated

Today's Extremes

State Highs State Lows

Community

WunderPhotos

Upload Photos

1,928,299 photos uploaded!

WunderBlog® & News

Nearby

Air Quality

  Air Quality AQ Index Pollutant
Not available.

Snow Depth

Station Depth Elevation

Earthquake Activity

City Distance Mag. Time & Date
Minimum magnitude displayed is 2.5.

Coastal Water Temperatures

Place Temperature

Stations

Nearby Weather Stations

Station Location Temp. Windchill Dew Point Humidity Wind Precip. Elev Updated Type
                   

Watches & Warnings

There are currently no watches in effect.